sensor_id;sensor_type;location;lat;lon;timestamp;pressure;altitude;pressure_sealevel;temperature;humidity
80401;BME280;69727;53.132;8.230;2024-03-08T00:00:13;102306.00;;;1.05;85.92
80401;BME280;69727;53.132;8.230;2024-03-08T00:02:39;102303.94;;;1.10;85.32
80401;BME280;69727;53.132;8.230;2024-03-08T00:05:06;102300.34;;;1.11;85.52
80401;BME280;69727;53.132;8.230;2024-03-08T00:07:32;102305.19;;;1.05;85.58
80401;BME280;69727;53.132;8.230;2024-03-08T00:09:58;102306.22;;;1.02;85.54
80401;BME280;69727;53.132;8.230;2024-03-08T00:12:24;102297.84;;;0.96;85.40
80401;BME280;69727;53.132;8.230;2024-03-08T00:14:51;102292.72;;;0.93;85.69
80401;BME280;69727;53.132;8.230;2024-03-08T00:17:16;102293.81;;;0.90;85.49
80401;BME280;69727;53.132;8.230;2024-03-08T00:19:41;102303.97;;;0.96;85.29
80401;BME280;69727;53.132;8.230;2024-03-08T00:22:07;102295.19;;;0.96;85.52
80401;BME280;69727;53.132;8.230;2024-03-08T00:24:33;102298.47;;;0.99;85.08
80401;BME280;69727;53.132;8.230;2024-03-08T00:26:58;102296.03;;;0.96;85.36
80401;BME280;69727;53.132;8.230;2024-03-08T00:29:24;102293.59;;;0.93;85.01
80401;BME280;69727;53.132;8.230;2024-03-08T00:31:49;102291.69;;;0.95;85.01
80401;BME280;69727;53.132;8.230;2024-03-08T00:34:15;102297.44;;;1.02;84.78
80401;BME280;69727;53.132;8.230;2024-03-08T00:36:41;102295.19;;;0.96;84.96
80401;BME280;69727;53.132;8.230;2024-03-08T00:39:06;102290.44;;;1.01;84.54
80401;BME280;69727;53.132;8.230;2024-03-08T00:41:32;102299.63;;;0.95;84.39
80401;BME280;69727;53.132;8.230;2024-03-08T00:43:58;102293.88;;;0.89;85.14
80401;BME280;69727;53.132;8.230;2024-03-08T00:46:23;102288.69;;;0.87;84.97
80401;BME280;69727;53.132;8.230;2024-03-08T00:48:49;102296.53;;;0.89;84.62
80401;BME280;69727;53.132;8.230;2024-03-08T00:51:15;102288.50;;;0.90;84.67
80401;BME280;69727;53.132;8.230;2024-03-08T00:53:41;102280.66;;;0.89;84.22
80401;BME280;69727;53.132;8.230;2024-03-08T00:56:08;102281.59;;;0.88;84.20
80401;BME280;69727;53.132;8.230;2024-03-08T00:58:38;102282.84;;;0.82;84.71
80401;BME280;69727;53.132;8.230;2024-03-08T01:01:04;102271.34;;;0.83;84.82
80401;BME280;69727;53.132;8.230;2024-03-08T01:03:30;102267.94;;;0.81;84.71
80401;BME280;69727;53.132;8.230;2024-03-08T01:05:57;102268.56;;;0.85;84.42
80401;BME280;69727;53.132;8.230;2024-03-08T01:08:23;102265.38;;;0.79;84.55
80401;BME280;69727;53.132;8.230;2024-03-08T01:10:48;102257.00;;;0.73;84.32
80401;BME280;69727;53.132;8.230;2024-03-08T01:13:15;102258.78;;;0.72;84.56
80401;BME280;69727;53.132;8.230;2024-03-08T01:15:41;102258.25;;;0.67;85.13
80401;BME280;69727;53.132;8.230;2024-03-08T01:18:07;102254.28;;;0.60;84.87
80401;BME280;69727;53.132;8.230;2024-03-08T01:20:32;102247.97;;;0.63;84.82
80401;BME280;69727;53.132;8.230;2024-03-08T01:22:57;102253.44;;;0.60;84.84
80401;BME280;69727;53.132;8.230;2024-03-08T01:25:23;102242.09;;;0.58;84.73
80401;BME280;69727;53.132;8.230;2024-03-08T01:27:48;102244.84;;;0.56;84.81
80401;BME280;69727;53.132;8.230;2024-03-08T01:30:14;102241.25;;;0.57;84.75
80401;BME280;69727;53.132;8.230;2024-03-08T01:32:42;102240.31;;;0.58;84.78
80401;BME280;69727;53.132;8.230;2024-03-08T01:35:09;102233.63;;;0.53;84.72
80401;BME280;69727;53.132;8.230;2024-03-08T01:37:35;102230.13;;;0.52;84.87
80401;BME280;69727;53.132;8.230;2024-03-08T01:40:01;102228.44;;;0.51;84.98
80401;BME280;69727;53.132;8.230;2024-03-08T01:42:28;102225.88;;;0.50;84.63
80401;BME280;69727;53.132;8.230;2024-03-08T01:44:54;102221.84;;;0.44;84.99
80401;BME280;69727;53.132;8.230;2024-03-08T01:47:20;102207.28;;;0.51;84.79
80401;BME280;69727;53.132;8.230;2024-03-08T01:49:49;102212.47;;;0.53;84.49
80401;BME280;69727;53.132;8.230;2024-03-08T01:52:15;102209.38;;;0.46;84.72
80401;BME280;69727;53.132;8.230;2024-03-08T01:54:41;102209.28;;;0.48;84.23
80401;BME280;69727;53.132;8.230;2024-03-08T01:57:07;102205.97;;;0.44;84.40
80401;BME280;69727;53.132;8.230;2024-03-08T01:59:33;102204.41;;;0.42;84.65
80401;BME280;69727;53.132;8.230;2024-03-08T02:02:01;102203.56;;;0.41;84.78
80401;BME280;69727;53.132;8.230;2024-03-08T02:04:28;102201.25;;;0.49;84.27
80401;BME280;69727;53.132;8.230;2024-03-08T02:06:56;102205.03;;;0.45;84.23
80401;BME280;69727;53.132;8.230;2024-03-08T02:09:23;102196.16;;;0.46;83.78
80401;BME280;69727;53.132;8.230;2024-03-08T02:11:50;102192.75;;;0.44;84.13
80401;BME280;69727;53.132;8.230;2024-03-08T02:14:17;102195.63;;;0.41;84.06
80401;BME280;69727;53.132;8.230;2024-03-08T02:16:44;102183.91;;;0.45;83.71
80401;BME280;69727;53.132;8.230;2024-03-08T02:19:09;102184.13;;;0.42;84.27
80401;BME280;69727;53.132;8.230;2024-03-08T02:21:35;102186.84;;;0.41;84.31
80401;BME280;69727;53.132;8.230;2024-03-08T02:24:01;102193.84;;;0.42;84.25
80401;BME280;69727;53.132;8.230;2024-03-08T02:26:27;102188.81;;;0.37;84.06
80401;BME280;69727;53.132;8.230;2024-03-08T02:28:52;102187.78;;;0.39;84.39
80401;BME280;69727;53.132;8.230;2024-03-08T02:31:18;102180.88;;;0.37;84.20
80401;BME280;69727;53.132;8.230;2024-03-08T02:33:43;102185.81;;;0.29;84.42
80401;BME280;69727;53.132;8.230;2024-03-08T02:36:09;102185.53;;;0.33;84.05
80401;BME280;69727;53.132;8.230;2024-03-08T02:38:34;102182.22;;;0.30;84.50
80401;BME280;69727;53.132;8.230;2024-03-08T02:41:00;102180.19;;;0.21;84.42
80401;BME280;69727;53.132;8.230;2024-03-08T02:43:25;102176.88;;;0.17;84.71
80401;BME280;69727;53.132;8.230;2024-03-08T02:45:51;102177.63;;;0.19;84.65
80401;BME280;69727;53.132;8.230;2024-03-08T02:48:18;102175.94;;;0.18;84.61
80401;BME280;69727;53.132;8.230;2024-03-08T02:50:43;102174.91;;;0.21;84.69
80401;BME280;69727;53.132;8.230;2024-03-08T02:53:10;102167.53;;;0.12;84.91
80401;BME280;69727;53.132;8.230;2024-03-08T02:55:36;102167.16;;;0.18;84.59
80401;BME280;69727;53.132;8.230;2024-03-08T02:58:03;102160.75;;;0.08;85.12
80401;BME280;69727;53.132;8.230;2024-03-08T03:00:28;102158.88;;;0.10;85.13
80401;BME280;69727;53.132;8.230;2024-03-08T03:02:56;102151.16;;;0.07;85.26
80401;BME280;69727;53.132;8.230;2024-03-08T03:05:22;102151.88;;;0.09;85.36
80401;BME280;69727;53.132;8.230;2024-03-08T03:07:50;102156.44;;;0.07;85.33
80401;BME280;69727;53.132;8.230;2024-03-08T03:10:18;102150.38;;;0.05;85.39
80401;BME280;69727;53.132;8.230;2024-03-08T03:12:45;102150.84;;;0.11;84.66
80401;BME280;69727;53.132;8.230;2024-03-08T03:15:11;102142.56;;;0.03;85.10
80401;BME280;69727;53.132;8.230;2024-03-08T03:17:37;102148.03;;;0.00;85.20
80401;BME280;69727;53.132;8.230;2024-03-08T03:20:05;102141.06;;;-0.01;85.51
80401;BME280;69727;53.132;8.230;2024-03-08T03:22:36;102145.50;;;-0.02;85.14
80401;BME280;69727;53.132;8.230;2024-03-08T03:25:03;102141.91;;;-0.01;85.46
80401;BME280;69727;53.132;8.230;2024-03-08T03:27:29;102144.56;;;-0.01;85.29
80401;BME280;69727;53.132;8.230;2024-03-08T03:29:55;102143.50;;;0.02;85.28
80401;BME280;69727;53.132;8.230;2024-03-08T03:32:23;102146.59;;;0.09;84.94
80401;BME280;69727;53.132;8.230;2024-03-08T03:34:49;102146.59;;;0.09;84.64
80401;BME280;69727;53.132;8.230;2024-03-08T03:37:18;102145.88;;;0.07;84.91
80401;BME280;69727;53.132;8.230;2024-03-08T03:39:44;102144.03;;;0.07;85.00
80401;BME280;69727;53.132;8.230;2024-03-08T03:42:19;102140.84;;;0.02;84.83
80401;BME280;69727;53.132;8.230;2024-03-08T03:44:45;102143.97;;;-0.06;85.24
80401;BME280;69727;53.132;8.230;2024-03-08T03:47:12;102144.63;;;-0.02;85.12
80401;BME280;69727;53.132;8.230;2024-03-08T03:49:37;102137.84;;;-0.06;85.43
80401;BME280;69727;53.132;8.230;2024-03-08T03:52:03;102142.66;;;-0.13;85.42
80401;BME280;69727;53.132;8.230;2024-03-08T03:54:30;102144.44;;;-0.13;85.89
80401;BME280;69727;53.132;8.230;2024-03-08T03:56:56;102141.72;;;-0.12;85.71
80401;BME280;69727;53.132;8.230;2024-03-08T03:59:21;102137.84;;;-0.20;86.02
80401;BME280;69727;53.132;8.230;2024-03-08T04:01:47;102139.38;;;-0.16;86.01
80401;BME280;69727;53.132;8.230;2024-03-08T04:04:12;102135.66;;;-0.14;86.09
80401;BME280;69727;53.132;8.230;2024-03-08T04:06:38;102135.97;;;-0.18;86.09
80401;BME280;69727;53.132;8.230;2024-03-08T04:09:03;102128.13;;;-0.20;86.09
80401;BME280;69727;53.132;8.230;2024-03-08T04:11:30;102131.91;;;-0.24;86.58
80401;BME280;69727;53.132;8.230;2024-03-08T04:13:55;102127.28;;;-0.20;86.42
80401;BME280;69727;53.132;8.230;2024-03-08T04:16:21;102122.47;;;-0.28;86.80
80401;BME280;69727;53.132;8.230;2024-03-08T04:18:46;102127.50;;;-0.23;86.42
80401;BME280;69727;53.132;8.230;2024-03-08T04:21:13;102131.16;;;-0.26;86.56
80401;BME280;69727;53.132;8.230;2024-03-08T04:23:38;102119.19;;;-0.31;86.50
80401;BME280;69727;53.132;8.230;2024-03-08T04:26:04;102117.97;;;-0.26;86.60
80401;BME280;69727;53.132;8.230;2024-03-08T04:28:31;102118.34;;;-0.32;86.46
80401;BME280;69727;53.132;8.230;2024-03-08T04:30:57;102121.16;;;-0.35;86.58
80401;BME280;69727;53.132;8.230;2024-03-08T04:33:23;102121.28;;;-0.36;86.78
80401;BME280;69727;53.132;8.230;2024-03-08T04:35:49;102116.00;;;-0.36;86.91
80401;BME280;69727;53.132;8.230;2024-03-08T04:38:14;102116.25;;;-0.41;87.02
80401;BME280;69727;53.132;8.230;2024-03-08T04:40:41;102112.91;;;-0.43;86.99
80401;BME280;69727;53.132;8.230;2024-03-08T04:43:06;102121.84;;;-0.46;87.27
80401;BME280;69727;53.132;8.230;2024-03-08T04:45:33;102115.31;;;-0.40;87.28
80401;BME280;69727;53.132;8.230;2024-03-08T04:47:59;102111.56;;;-0.36;87.03
80401;BME280;69727;53.132;8.230;2024-03-08T04:50:24;102120.34;;;-0.35;87.21
80401;BME280;69727;53.132;8.230;2024-03-08T04:52:50;102110.13;;;-0.42;87.08
80401;BME280;69727;53.132;8.230;2024-03-08T04:55:18;102101.09;;;-0.37;87.05
80401;BME280;69727;53.132;8.230;2024-03-08T04:57:46;102100.81;;;-0.47;87.13
80401;BME280;69727;53.132;8.230;2024-03-08T05:00:12;102102.88;;;-0.52;87.47
80401;BME280;69727;53.132;8.230;2024-03-08T05:02:38;102099.56;;;-0.56;87.68
80401;BME280;69727;53.132;8.230;2024-03-08T05:05:05;102091.94;;;-0.60;88.08
80401;BME280;69727;53.132;8.230;2024-03-08T05:07:31;102096.00;;;-0.55;87.89
80401;BME280;69727;53.132;8.230;2024-03-08T05:09:58;102091.50;;;-0.53;87.84
80401;BME280;69727;53.132;8.230;2024-03-08T05:12:24;102095.91;;;-0.53;87.82
80401;BME280;69727;53.132;8.230;2024-03-08T05:14:49;102085.34;;;-0.53;87.86
80401;BME280;69727;53.132;8.230;2024-03-08T05:17:15;102081.78;;;-0.52;88.00
80401;BME280;69727;53.132;8.230;2024-03-08T05:19:42;102080.63;;;-0.48;87.71
80401;BME280;69727;53.132;8.230;2024-03-08T05:22:07;102077.81;;;-0.45;87.71
80401;BME280;69727;53.132;8.230;2024-03-08T05:24:33;102081.09;;;-0.56;88.04
80401;BME280;69727;53.132;8.230;2024-03-08T05:26:59;102071.78;;;-0.61;88.23
80401;BME280;69727;53.132;8.230;2024-03-08T05:29:25;102076.41;;;-0.51;88.05
80401;BME280;69727;53.132;8.230;2024-03-08T05:31:51;102077.53;;;-0.55;88.08
80401;BME280;69727;53.132;8.230;2024-03-08T05:34:18;102070.75;;;-0.59;88.20
80401;BME280;69727;53.132;8.230;2024-03-08T05:36:45;102071.88;;;-0.63;88.57
80401;BME280;69727;53.132;8.230;2024-03-08T05:39:14;102067.66;;;-0.65;88.44
80401;BME280;69727;53.132;8.230;2024-03-08T05:41:40;102073.41;;;-0.59;88.50
80401;BME280;69727;53.132;8.230;2024-03-08T05:44:06;102061.22;;;-0.61;88.89
80401;BME280;69727;53.132;8.230;2024-03-08T05:46:33;102060.38;;;-0.62;88.39
80401;BME280;69727;53.132;8.230;2024-03-08T05:48:58;102059.06;;;-0.55;88.38
80401;BME280;69727;53.132;8.230;2024-03-08T05:51:24;102063.03;;;-0.62;88.50
80401;BME280;69727;53.132;8.230;2024-03-08T05:53:52;102056.25;;;-0.66;88.77
80401;BME280;69727;53.132;8.230;2024-03-08T05:56:19;102057.00;;;-0.64;88.63
80401;BME280;69727;53.132;8.230;2024-03-08T05:58:44;102055.50;;;-0.68;88.84
80401;BME280;69727;53.132;8.230;2024-03-08T06:01:11;102054.72;;;-0.70;89.28
80401;BME280;69727;53.132;8.230;2024-03-08T06:03:38;102053.69;;;-0.67;88.90
80401;BME280;69727;53.132;8.230;2024-03-08T06:06:13;102054.38;;;-0.64;89.11
80401;BME280;69727;53.132;8.230;2024-03-08T06:08:38;102046.63;;;-0.67;88.95
80401;BME280;69727;53.132;8.230;2024-03-08T06:11:04;102049.84;;;-0.62;89.13
80401;BME280;69727;53.132;8.230;2024-03-08T06:13:31;102042.31;;;-0.54;89.05
80401;BME280;69727;53.132;8.230;2024-03-08T06:15:57;102047.31;;;-0.49;89.33
80401;BME280;69727;53.132;8.230;2024-03-08T06:18:22;102048.13;;;-0.49;88.84
80401;BME280;69727;53.132;8.230;2024-03-08T06:20:48;102045.63;;;-0.50;88.86
80401;BME280;69727;53.132;8.230;2024-03-08T06:23:13;102050.88;;;-0.50;88.59
80401;BME280;69727;53.132;8.230;2024-03-08T06:25:44;102037.22;;;-0.43;89.00
80401;BME280;69727;53.132;8.230;2024-03-08T06:28:09;102038.41;;;-0.34;88.69
80401;BME280;69727;53.132;8.230;2024-03-08T06:30:35;102044.53;;;-0.33;88.18
80401;BME280;69727;53.132;8.230;2024-03-08T06:33:00;102041.81;;;-0.32;88.42
80401;BME280;69727;53.132;8.230;2024-03-08T06:35:26;102040.78;;;-0.29;88.67
80401;BME280;69727;53.132;8.230;2024-03-08T06:37:51;102039.72;;;-0.27;88.12
80401;BME280;69727;53.132;8.230;2024-03-08T06:40:17;102036.50;;;-0.18;88.31
80401;BME280;69727;53.132;8.230;2024-03-08T06:42:42;102037.91;;;-0.12;87.45
80401;BME280;69727;53.132;8.230;2024-03-08T06:45:08;102043.84;;;-0.09;87.80
80401;BME280;69727;53.132;8.230;2024-03-08T06:47:36;102039.47;;;0.05;87.67
80401;BME280;69727;53.132;8.230;2024-03-08T06:50:02;102036.63;;;0.08;87.84
80401;BME280;69727;53.132;8.230;2024-03-08T06:52:29;102025.03;;;0.10;88.52
80401;BME280;69727;53.132;8.230;2024-03-08T06:54:54;102039.63;;;0.16;87.82
80401;BME280;69727;53.132;8.230;2024-03-08T06:57:20;102036.97;;;0.16;87.19
80401;BME280;69727;53.132;8.230;2024-03-08T06:59:47;102041.56;;;0.26;86.57
80401;BME280;69727;53.132;8.230;2024-03-08T07:02:13;102029.41;;;0.24;86.42
80401;BME280;69727;53.132;8.230;2024-03-08T07:04:38;102041.06;;;0.34;86.41
80401;BME280;69727;53.132;8.230;2024-03-08T07:07:05;102036.22;;;0.41;86.08
80401;BME280;69727;53.132;8.230;2024-03-08T07:09:30;102032.13;;;0.49;85.44
80401;BME280;69727;53.132;8.230;2024-03-08T07:11:56;102041.47;;;0.55;84.86
80401;BME280;69727;53.132;8.230;2024-03-08T07:14:24;102038.81;;;0.55;84.82
80401;BME280;69727;53.132;8.230;2024-03-08T07:16:50;102037.47;;;0.62;84.40
80401;BME280;69727;53.132;8.230;2024-03-08T07:19:16;102047.53;;;0.69;84.11
80401;BME280;69727;53.132;8.230;2024-03-08T07:21:45;102043.81;;;0.72;83.50
80401;BME280;69727;53.132;8.230;2024-03-08T07:24:12;102034.19;;;0.71;83.64
80401;BME280;69727;53.132;8.230;2024-03-08T07:27:06;102040.34;;;0.84;83.27
80401;BME280;69727;53.132;8.230;2024-03-08T07:29:32;102032.72;;;0.92;82.48
80401;BME280;69727;53.132;8.230;2024-03-08T07:31:59;102036.44;;;0.90;82.31
80401;BME280;69727;53.132;8.230;2024-03-08T07:34:39;102030.94;;;0.93;82.81
80401;BME280;69727;53.132;8.230;2024-03-08T07:37:06;102032.00;;;1.03;82.11
80401;BME280;69727;53.132;8.230;2024-03-08T07:39:36;102033.28;;;1.10;82.36
80401;BME280;69727;53.132;8.230;2024-03-08T07:42:02;102030.72;;;1.08;82.40
80401;BME280;69727;53.132;8.230;2024-03-08T07:44:27;102021.63;;;1.12;81.62
80401;BME280;69727;53.132;8.230;2024-03-08T07:46:53;102021.31;;;1.17;81.21
80401;BME280;69727;53.132;8.230;2024-03-08T07:49:18;102023.44;;;1.25;81.80
80401;BME280;69727;53.132;8.230;2024-03-08T07:51:43;102027.97;;;1.35;81.35
80401;BME280;69727;53.132;8.230;2024-03-08T07:54:09;102021.72;;;1.36;80.91
80401;BME280;69727;53.132;8.230;2024-03-08T07:56:34;102031.25;;;1.51;79.68
80401;BME280;69727;53.132;8.230;2024-03-08T07:59:02;102024.66;;;1.57;79.62
80401;BME280;69727;53.132;8.230;2024-03-08T08:01:29;102027.41;;;1.55;79.53
80401;BME280;69727;53.132;8.230;2024-03-08T08:03:56;102025.06;;;1.64;79.45
80401;BME280;69727;53.132;8.230;2024-03-08T08:06:22;102022.81;;;1.70;79.74
80401;BME280;69727;53.132;8.230;2024-03-08T08:08:47;102022.56;;;1.86;78.23
80401;BME280;69727;53.132;8.230;2024-03-08T08:11:12;102028.91;;;1.96;77.84
80401;BME280;69727;53.132;8.230;2024-03-08T08:13:38;102026.38;;;1.94;78.05
80401;BME280;69727;53.132;8.230;2024-03-08T08:16:04;102013.41;;;2.03;77.83
80401;BME280;69727;53.132;8.230;2024-03-08T08:18:31;102007.13;;;2.04;76.46
80401;BME280;69727;53.132;8.230;2024-03-08T08:20:58;102010.91;;;2.12;76.64
80401;BME280;69727;53.132;8.230;2024-03-08T08:23:25;102015.66;;;2.20;76.20
80401;BME280;69727;53.132;8.230;2024-03-08T08:25:51;102008.34;;;2.23;75.60
80401;BME280;69727;53.132;8.230;2024-03-08T08:28:17;102015.31;;;2.24;76.65
80401;BME280;69727;53.132;8.230;2024-03-08T08:30:45;102007.81;;;2.18;76.26
80401;BME280;69727;53.132;8.230;2024-03-08T08:33:11;101998.63;;;2.35;74.52
80401;BME280;69727;53.132;8.230;2024-03-08T08:35:37;101997.69;;;2.36;75.73
80401;BME280;69727;53.132;8.230;2024-03-08T08:38:06;101990.09;;;2.43;75.05
80401;BME280;69727;53.132;8.230;2024-03-08T08:40:33;101994.72;;;2.52;75.14
80401;BME280;69727;53.132;8.230;2024-03-08T08:42:59;101988.09;;;2.57;75.23
80401;BME280;69727;53.132;8.230;2024-03-08T08:45:25;101987.38;;;2.66;74.20
80401;BME280;69727;53.132;8.230;2024-03-08T08:47:51;101991.63;;;2.69;74.15
80401;BME280;69727;53.132;8.230;2024-03-08T08:50:17;101982.50;;;2.73;75.47
80401;BME280;69727;53.132;8.230;2024-03-08T08:52:48;101985.84;;;2.75;74.33
80401;BME280;69727;53.132;8.230;2024-03-08T08:55:14;101978.41;;;2.80;74.65
80401;BME280;69727;53.132;8.230;2024-03-08T08:57:40;101975.66;;;2.93;73.90
80401;BME280;69727;53.132;8.230;2024-03-08T09:00:07;101981.44;;;2.98;73.13
80401;BME280;69727;53.132;8.230;2024-03-08T09:02:36;101976.63;;;3.14;71.79
80401;BME280;69727;53.132;8.230;2024-03-08T09:05:03;101972.88;;;3.16;72.32
80401;BME280;69727;53.132;8.230;2024-03-08T09:07:28;101962.88;;;3.20;71.24
80401;BME280;69727;53.132;8.230;2024-03-08T09:09:54;101971.19;;;3.38;70.47
80401;BME280;69727;53.132;8.230;2024-03-08T09:12:24;101957.41;;;3.44;69.53
80401;BME280;69727;53.132;8.230;2024-03-08T09:14:49;101966.59;;;3.51;70.08
80401;BME280;69727;53.132;8.230;2024-03-08T09:17:15;101960.66;;;3.70;70.22
80401;BME280;69727;53.132;8.230;2024-03-08T09:19:48;101952.53;;;3.82;69.59
80401;BME280;69727;53.132;8.230;2024-03-08T09:22:14;101950.06;;;4.02;68.58
80401;BME280;69727;53.132;8.230;2024-03-08T09:24:39;101950.47;;;4.18;67.70
80401;BME280;69727;53.132;8.230;2024-03-08T09:27:05;101942.44;;;4.29;66.80
80401;BME280;69727;53.132;8.230;2024-03-08T09:29:31;101941.69;;;4.38;66.54
80401;BME280;69727;53.132;8.230;2024-03-08T09:31:56;101940.06;;;4.47;66.04
80401;BME280;69727;53.132;8.230;2024-03-08T09:34:22;101934.69;;;4.58;66.55
80401;BME280;69727;53.132;8.230;2024-03-08T09:36:47;101922.41;;;4.66;65.59
80401;BME280;69727;53.132;8.230;2024-03-08T09:39:13;101924.88;;;4.79;64.91
80401;BME280;69727;53.132;8.230;2024-03-08T09:41:45;101921.66;;;4.85;65.03
80401;BME280;69727;53.132;8.230;2024-03-08T09:44:14;101917.16;;;5.06;64.05
80401;BME280;69727;53.132;8.230;2024-03-08T09:46:40;101915.50;;;5.15;64.14
80401;BME280;69727;53.132;8.230;2024-03-08T09:49:06;101918.91;;;5.27;64.16
80401;BME280;69727;53.132;8.230;2024-03-08T09:51:33;101905.78;;;5.44;63.35
80401;BME280;69727;53.132;8.230;2024-03-08T09:54:00;101906.84;;;5.72;62.89
80401;BME280;69727;53.132;8.230;2024-03-08T09:56:32;101889.31;;;5.89;60.57
80401;BME280;69727;53.132;8.230;2024-03-08T09:58:58;101886.94;;;5.86;60.63
80401;BME280;69727;53.132;8.230;2024-03-08T10:01:29;101890.63;;;5.95;59.91
80401;BME280;69727;53.132;8.230;2024-03-08T10:03:57;101878.94;;;6.05;60.70
80401;BME280;69727;53.132;8.230;2024-03-08T10:06:23;101885.09;;;6.25;59.67
80401;BME280;69727;53.132;8.230;2024-03-08T10:08:49;101879.75;;;6.44;59.63
80401;BME280;69727;53.132;8.230;2024-03-08T10:11:17;101882.25;;;6.65;58.75
80401;BME280;69727;53.132;8.230;2024-03-08T10:13:44;101876.44;;;6.79;57.76
80401;BME280;69727;53.132;8.230;2024-03-08T10:16:12;101873.03;;;6.87;56.57
80401;BME280;69727;53.132;8.230;2024-03-08T10:18:37;101871.59;;;6.92;56.79
80401;BME280;69727;53.132;8.230;2024-03-08T10:21:04;101864.25;;;7.04;56.76
80401;BME280;69727;53.132;8.230;2024-03-08T10:23:31;101859.47;;;7.07;55.63
80401;BME280;69727;53.132;8.230;2024-03-08T10:25:56;101856.47;;;7.10;54.69
80401;BME280;69727;53.132;8.230;2024-03-08T10:28:23;101860.81;;;7.12;56.37
80401;BME280;69727;53.132;8.230;2024-03-08T10:30:50;101846.59;;;7.21;55.23
80401;BME280;69727;53.132;8.230;2024-03-08T10:33:15;101846.97;;;7.26;54.97
80401;BME280;69727;53.132;8.230;2024-03-08T10:35:41;101842.03;;;7.31;55.34
80401;BME280;69727;53.132;8.230;2024-03-08T10:38:10;101835.63;;;7.41;54.78
80401;BME280;69727;53.132;8.230;2024-03-08T10:40:39;101835.53;;;7.33;54.23
80401;BME280;69727;53.132;8.230;2024-03-08T10:43:10;101840.28;;;7.39;54.40
80401;BME280;69727;53.132;8.230;2024-03-08T10:45:41;101835.72;;;7.49;54.16
80401;BME280;69727;53.132;8.230;2024-03-08T10:50:47;101823.72;;;7.71;53.81
80401;BME280;69727;53.132;8.230;2024-03-08T10:53:17;101822.63;;;8.00;53.03
80401;BME280;69727;53.132;8.230;2024-03-08T10:55:43;101814.53;;;8.09;53.72
80401;BME280;69727;53.132;8.230;2024-03-08T10:58:10;101818.22;;;8.34;51.82
80401;BME280;69727;53.132;8.230;2024-03-08T11:00:36;101820.31;;;8.40;53.13
80401;BME280;69727;53.132;8.230;2024-03-08T11:03:03;101811.75;;;8.71;51.84
80401;BME280;69727;53.132;8.230;2024-03-08T11:08:02;101801.97;;;8.87;52.16
80401;BME280;69727;53.132;8.230;2024-03-08T11:10:29;101806.75;;;8.68;50.36
80401;BME280;69727;53.132;8.230;2024-03-08T11:12:54;101798.94;;;8.82;50.51
80401;BME280;69727;53.132;8.230;2024-03-08T11:15:20;101805.28;;;8.81;50.46
80401;BME280;69727;53.132;8.230;2024-03-08T11:17:50;101787.22;;;8.83;50.40
80401;BME280;69727;53.132;8.230;2024-03-08T11:20:17;101777.56;;;8.98;51.10
80401;BME280;69727;53.132;8.230;2024-03-08T11:22:53;101771.78;;;9.27;49.18
80401;BME280;69727;53.132;8.230;2024-03-08T11:25:39;101771.53;;;8.96;49.91
80401;BME280;69727;53.132;8.230;2024-03-08T11:28:17;101766.19;;;9.04;50.33
80401;BME280;69727;53.132;8.230;2024-03-08T11:31:22;101760.22;;;9.27;50.24
80401;BME280;69727;53.132;8.230;2024-03-08T11:33:35;101759.09;;;9.70;49.21
80401;BME280;69727;53.132;8.230;2024-03-08T11:38:39;101755.75;;;9.84;47.89
80401;BME280;69727;53.132;8.230;2024-03-08T11:41:05;101756.56;;;10.09;48.49
80401;BME280;69727;53.132;8.230;2024-03-08T11:43:31;101747.00;;;10.06;46.93
80401;BME280;69727;53.132;8.230;2024-03-08T11:46:10;101747.31;;;10.36;50.90
80401;BME280;69727;53.132;8.230;2024-03-08T11:48:37;101749.34;;;10.17;49.42
80401;BME280;69727;53.132;8.230;2024-03-08T11:51:03;101738.44;;;10.19;46.74
80401;BME280;69727;53.132;8.230;2024-03-08T11:53:30;101736.78;;;10.02;47.13
80401;BME280;69727;53.132;8.230;2024-03-08T11:56:10;101733.75;;;9.97;47.28
80401;BME280;69727;53.132;8.230;2024-03-08T11:58:37;101731.06;;;10.05;46.69
80401;BME280;69727;53.132;8.230;2024-03-08T12:01:05;101726.38;;;10.07;47.03
80401;BME280;69727;53.132;8.230;2024-03-08T12:03:42;101715.50;;;9.84;47.03
80401;BME280;69727;53.132;8.230;2024-03-08T12:06:11;101720.47;;;10.11;48.01
80401;BME280;69727;53.132;8.230;2024-03-08T12:08:38;101724.06;;;10.59;46.19
80401;BME280;69727;53.132;8.230;2024-03-08T12:11:04;101721.47;;;11.05;46.71
80401;BME280;69727;53.132;8.230;2024-03-08T12:13:34;101716.19;;;10.88;44.09
80401;BME280;69727;53.132;8.230;2024-03-08T12:16:00;101716.22;;;10.80;44.91
80401;BME280;69727;53.132;8.230;2024-03-08T12:18:33;101704.69;;;11.02;44.96
80401;BME280;69727;53.132;8.230;2024-03-08T12:23:33;101697.13;;;11.06;43.70
80401;BME280;69727;53.132;8.230;2024-03-08T12:26:09;101668.63;;;10.66;44.01
80401;BME280;69727;53.132;8.230;2024-03-08T12:28:40;101678.06;;;10.62;45.38
80401;BME280;69727;53.132;8.230;2024-03-08T12:31:34;101666.22;;;10.79;44.84
80401;BME280;69727;53.132;8.230;2024-03-08T12:34:01;101669.03;;;10.86;45.18
80401;BME280;69727;53.132;8.230;2024-03-08T12:36:28;101671.34;;;10.89;45.16
80401;BME280;69727;53.132;8.230;2024-03-08T12:38:54;101665.72;;;11.07;44.26
80401;BME280;69727;53.132;8.230;2024-03-08T12:41:20;101648.38;;;11.09;43.60
80401;BME280;69727;53.132;8.230;2024-03-08T12:43:46;101648.56;;;11.08;43.67
80401;BME280;69727;53.132;8.230;2024-03-08T12:46:19;101651.50;;;11.21;43.29
80401;BME280;69727;53.132;8.230;2024-03-08T12:48:48;101651.78;;;11.26;43.26
80401;BME280;69727;53.132;8.230;2024-03-08T12:51:14;101645.03;;;11.30;42.90
80401;BME280;69727;53.132;8.230;2024-03-08T12:53:44;101644.59;;;11.41;42.76
80401;BME280;69727;53.132;8.230;2024-03-08T12:56:11;101643.00;;;11.32;43.28
80401;BME280;69727;53.132;8.230;2024-03-08T12:58:37;101629.66;;;11.38;43.21
80401;BME280;69727;53.132;8.230;2024-03-08T13:01:04;101617.22;;;11.37;41.13
80401;BME280;69727;53.132;8.230;2024-03-08T13:03:33;101614.78;;;11.13;41.15
80401;BME280;69727;53.132;8.230;2024-03-08T13:06:02;101616.78;;;11.11;42.67